Time;durP1;ratioP1;P1;durP2;ratioP2;P2;SDS_P1;SDS_P2;PMS_P1;PMS_P2;Temp;Humidity;BMP_temperature;BMP_pressure;BME280_temperature;BME280_humidity;BME280_pressure;Samples;Min_cycle;Max_cycle;Signal;HPM_P1;HPM_P2
2022/06/23 00:00:57;;;;;;;6.45;4.45;;;15.00;99.90;;;;;;4808751;29;20058;-62
2022/06/23 00:03:24;;;;;;;5.20;4.15;;;15.00;99.90;;;;;;4825384;29;20054;-63
2022/06/23 00:05:57;;;;;;;5.70;4.45;;;14.90;99.90;;;;;;4824693;29;20409;-62
2022/06/23 00:08:24;;;;;;;7.05;4.55;;;14.90;99.90;;;;;;4825232;29;20061;-62
2022/06/23 00:11:01;;;;;;;6.22;4.57;;;15.00;99.90;;;;;;4824720;29;20043;-62
2022/06/23 00:13:37;;;;;;;5.75;4.60;;;15.00;99.90;;;;;;4825163;29;20050;-63
2022/06/23 00:16:05;;;;;;;7.43;4.75;;;14.90;99.90;;;;;;4823598;29;20552;-62
2022/06/23 00:18:37;;;;;;;5.80;4.75;;;14.90;99.90;;;;;;4808730;29;20118;-62
2022/06/23 00:21:27;;;;;;;5.97;5.00;;;14.80;99.90;;;;;;4824648;29;20497;-62
2022/06/23 00:24:00;;;;;;;6.10;4.90;;;14.80;99.90;;;;;;4813760;29;20067;-63
2022/06/23 00:26:31;;;;;;;5.90;4.97;;;14.60;99.90;;;;;;4824651;29;20527;-63
2022/06/23 00:29:04;;;;;;;7.07;4.88;;;14.70;99.90;;;;;;4824543;29;20051;-62
2022/06/23 00:31:42;;;;;;;6.30;4.60;;;14.70;99.90;;;;;;4824960;29;20350;-63
2022/06/23 00:34:20;;;;;;;6.20;4.82;;;14.70;99.90;;;;;;4808452;29;20050;-62
2022/06/23 00:36:51;;;;;;;6.43;4.60;;;14.70;99.90;;;;;;4824219;29;20466;-67
2022/06/23 00:39:27;;;;;;;6.75;5.25;;;14.60;99.90;;;;;;4808710;29;20093;-62
2022/06/23 00:41:53;;;;;;;5.40;4.70;;;14.60;99.90;;;;;;4824231;29;20106;-62
2022/06/23 00:44:45;;;;;;;7.15;5.07;;;14.60;99.90;;;;;;4824660;29;20054;-62
2022/06/23 00:47:17;;;;;;;6.57;5.20;;;14.60;99.90;;;;;;4807935;29;20046;-63
2022/06/23 00:49:53;;;;;;;7.43;5.25;;;14.50;99.90;;;;;;4824653;29;20050;-62
2022/06/23 00:52:36;;;;;;;6.10;5.47;;;14.50;99.90;;;;;;4824485;29;20133;-63
2022/06/23 00:55:17;;;;;;;6.50;5.72;;;14.50;99.90;;;;;;4824051;29;20084;-63
2022/06/23 00:57:52;;;;;;;6.03;4.93;;;14.50;99.90;;;;;;4824271;29;20470;-62
2022/06/23 01:00:17;;;;;;;5.90;5.30;;;14.40;99.90;;;;;;4824412;29;20097;-62
2022/06/23 01:02:58;;;;;;;7.55;5.80;;;14.40;99.90;;;;;;4824483;29;20089;-61
2022/06/23 01:05:33;;;;;;;6.28;5.53;;;14.40;99.90;;;;;;4824325;29;20079;-61
2022/06/23 01:08:10;;;;;;;6.97;5.60;;;14.30;99.90;;;;;;4792799;29;20085;-61
2022/06/23 01:11:02;;;;;;;6.60;5.47;;;14.30;99.90;;;;;;4824331;29;20097;-61
2022/06/23 01:13:56;;;;;;;7.15;5.78;;;14.30;99.90;;;;;;4824062;29;20497;-62
2022/06/23 01:16:24;;;;;;;7.05;5.85;;;14.30;99.90;;;;;;4824036;29;20082;-65
2022/06/23 01:18:55;;;;;;;6.80;5.60;;;14.30;99.90;;;;;;4824147;29;20050;-67
2022/06/23 01:21:36;;;;;;;7.15;5.72;;;14.30;99.90;;;;;;4823955;29;20050;-62
2022/06/23 01:24:17;;;;;;;6.05;5.45;;;14.30;99.90;;;;;;4807731;29;20069;-62
2022/06/23 01:26:57;;;;;;;7.07;6.32;;;14.30;99.90;;;;;;4792473;29;20115;-61
2022/06/23 01:29:40;;;;;;;7.60;6.53;;;14.30;99.90;;;;;;4824080;29;20500;-62
2022/06/23 01:32:16;;;;;;;8.02;6.55;;;14.20;99.90;;;;;;4823316;29;20130;-61
2022/06/23 01:34:45;;;;;;;7.40;6.40;;;14.20;99.90;;;;;;4823912;29;20055;-62
2022/06/23 01:37:34;;;;;;;7.32;5.88;;;14.20;99.90;;;;;;4823426;29;20382;-62
2022/06/23 01:40:10;;;;;;;8.73;6.88;;;14.20;99.90;;;;;;4807315;29;20054;-63
2022/06/23 01:42:51;;;;;;;7.68;6.78;;;14.10;99.90;;;;;;4823877;29;20050;-62
2022/06/23 01:45:43;;;;;;;9.07;6.85;;;14.10;99.90;;;;;;4823445;29;20050;-62
2022/06/23 01:48:13;;;;;;;9.30;7.13;;;14.10;99.90;;;;;;4794906;29;20421;-65
2022/06/23 01:50:50;;;;;;;8.95;7.30;;;14.00;99.90;;;;;;4823538;29;20051;-63
2022/06/23 01:53:27;;;;;;;9.68;7.25;;;14.00;99.90;;;;;;4823353;29;20104;-62
2022/06/23 01:56:22;;;;;;;9.15;6.65;;;14.00;99.90;;;;;;4823474;29;20122;-62
2022/06/23 01:58:53;;;;;;;8.32;7.10;;;14.10;99.90;;;;;;4806833;29;20057;-62
2022/06/23 02:01:31;;;;;;;10.10;7.20;;;14.10;99.90;;;;;;4823160;29;20049;-63
2022/06/23 02:04:19;;;;;;;8.07;6.97;;;14.00;99.90;;;;;;4823258;29;20050;-68
2022/06/23 02:07:09;;;;;;;7.47;6.70;;;14.00;99.90;;;;;;4823217;29;20058;-63
2022/06/23 02:09:46;;;;;;;9.27;7.10;;;14.00;99.90;;;;;;4823395;29;20122;-62
2022/06/23 02:12:39;;;;;;;11.02;7.65;;;13.90;99.90;;;;;;4823016;29;20061;-62
2022/06/23 02:15:12;;;;;;;9.68;7.22;;;13.90;99.90;;;;;;4823012;29;20468;-63
2022/06/23 02:18:02;;;;;;;9.82;7.28;;;13.90;99.90;;;;;;4823237;29;20054;-63
2022/06/23 02:20:32;;;;;;;9.45;7.47;;;13.90;99.90;;;;;;4806625;29;20050;-62
2022/06/23 02:23:37;;;;;;;8.55;6.97;;;13.90;99.90;;;;;;4823158;29;20485;-67
2022/06/23 02:26:20;;;;;;;11.55;8.27;;;13.90;99.90;;;;;;4823124;29;20047;-62
2022/06/23 02:29:02;;;;;;;11.13;8.10;;;13.80;99.90;;;;;;4822841;29;20516;-61
2022/06/23 02:31:46;;;;;;;9.23;7.40;;;13.90;99.90;;;;;;4822892;29;20050;-62
2022/06/23 02:34:11;;;;;;;10.25;8.15;;;13.80;99.90;;;;;;4822930;29;20133;-62
2022/06/23 02:37:01;;;;;;;9.55;7.65;;;13.80;99.90;;;;;;4806228;29;20133;-62
2022/06/23 02:39:52;;;;;;;10.75;7.90;;;13.70;99.90;;;;;;4806843;29;20046;-61
2022/06/23 02:42:28;;;;;;;9.30;7.68;;;13.70;99.90;;;;;;4797923;29;20141;-61
2022/06/23 02:45:25;;;;;;;10.10;7.68;;;13.70;99.90;;;;;;4822911;29;20054;-62
2022/06/23 02:48:19;;;;;;;9.45;8.32;;;13.60;99.90;;;;;;4806454;29;20057;-62
2022/06/23 02:51:09;;;;;;;9.70;8.35;;;13.60;99.90;;;;;;4806425;29;20455;-61
2022/06/23 02:54:14;;;;;;;8.98;7.65;;;13.60;99.90;;;;;;4822880;29;20115;-62
2022/06/23 02:56:40;;;;;;;12.52;7.78;;;13.60;99.90;;;;;;4806325;29;20054;-61
2022/06/23 02:59:19;;;;;;;11.32;8.02;;;13.50;99.90;;;;;;4822163;29;20061;-64
2022/06/23 03:01:56;;;;;;;8.80;7.57;;;13.50;99.90;;;;;;4791501;29;20050;-61
2022/06/23 03:04:31;;;;;;;10.32;7.93;;;13.50;99.90;;;;;;4822446;29;20081;-61
2022/06/23 03:07:11;;;;;;;9.68;7.72;;;13.40;99.90;;;;;;4822636;29;20561;-62
2022/06/23 03:09:47;;;;;;;11.15;8.43;;;13.50;99.90;;;;;;4823772;29;20114;-62
2022/06/23 03:12:16;;;;;;;10.60;8.43;;;13.40;99.90;;;;;;4825495;29;20145;-62
2022/06/23 03:14:51;;;;;;;10.10;8.43;;;13.40;99.90;;;;;;4825734;29;20497;-63
2022/06/23 03:17:24;;;;;;;10.35;7.88;;;13.50;99.90;;;;;;4825754;29;20133;-61
2022/06/23 03:20:34;;;;;;;9.20;7.45;;;13.50;99.90;;;;;;4825795;29;20516;-63
2022/06/23 03:23:18;;;;;;;11.23;7.97;;;13.50;99.90;;;;;;4793994;29;20497;-61
2022/06/23 03:26:14;;;;;;;9.73;7.45;;;13.50;99.90;;;;;;4825922;29;20089;-63
2022/06/23 03:28:56;;;;;;;10.07;7.90;;;13.40;99.90;;;;;;4779027;29;20153;-62
2022/06/23 03:31:37;;;;;;;10.13;8.25;;;13.50;99.90;;;;;;4809016;29;20084;-64
2022/06/23 03:34:17;;;;;;;12.25;8.20;;;13.50;99.90;;;;;;4825489;29;20504;-63
2022/06/23 03:37:07;;;;;;;10.68;7.82;;;13.50;99.90;;;;;;4825744;29;20393;-62
2022/06/23 03:42:36;;;;;;;11.70;8.73;;;13.50;99.90;;;;;;4825175;29;20054;-61
2022/06/23 03:45:11;;;;;;;11.52;8.25;;;13.60;99.90;;;;;;4809292;29;20072;-61
2022/06/23 03:48:12;;;;;;;13.07;8.70;;;13.50;99.90;;;;;;4825547;29;20053;-61
2022/06/23 03:50:55;;;;;;;17.55;8.50;;;13.60;99.90;;;;;;4811869;29;20058;-62
2022/06/23 03:53:30;;;;;;;12.77;9.65;;;13.60;99.90;;;;;;4824919;29;20133;-61
2022/06/23 03:56:35;;;;;;;14.35;9.13;;;13.60;99.90;;;;;;4825248;29;20095;-61
2022/06/23 03:59:13;;;;;;;11.60;9.27;;;13.60;99.90;;;;;;4825355;29;20050;-61
2022/06/23 04:01:42;;;;;;;12.70;8.73;;;13.60;99.90;;;;;;4825059;29;20133;-61
2022/06/23 04:04:18;;;;;;;12.40;8.57;;;13.60;99.90;;;;;;4825227;29;20050;-62
2022/06/23 04:06:49;;;;;;;12.60;9.40;;;13.60;99.90;;;;;;4809221;29;20165;-62
2022/06/23 04:09:24;;;;;;;12.93;9.93;;;13.60;99.90;;;;;;4824763;29;20050;-61
2022/06/23 04:12:03;;;;;;;11.50;9.38;;;13.60;99.90;;;;;;4825002;29;20059;-62
2022/06/23 04:14:41;;;;;;;12.93;9.88;;;13.70;99.90;;;;;;4824496;29;20054;-63
2022/06/23 04:17:18;;;;;;;14.98;9.50;;;13.70;99.90;;;;;;4825056;29;20050;-61
2022/06/23 04:19:50;;;;;;;12.27;8.80;;;13.80;99.90;;;;;;4824971;29;20069;-61
2022/06/23 04:22:30;;;;;;;11.60;9.13;;;13.80;99.90;;;;;;4824059;29;20054;-62
2022/06/23 04:25:00;;;;;;;12.52;8.90;;;13.80;99.90;;;;;;4824833;29;20054;-61
2022/06/23 04:27:31;;;;;;;12.52;9.68;;;13.90;99.90;;;;;;4823056;29;20063;-61
2022/06/23 04:29:59;;;;;;;12.07;8.82;;;13.90;99.90;;;;;;4824774;29;20477;-61
2022/06/23 04:32:29;;;;;;;12.93;9.00;;;14.00;99.90;;;;;;4824332;29;20071;-63
2022/06/23 04:35:07;;;;;;;11.20;8.38;;;14.10;99.90;;;;;;4824625;29;20090;-63
2022/06/23 04:37:55;;;;;;;11.18;9.00;;;14.20;99.90;;;;;;4824368;29;20058;-62
2022/06/23 04:40:29;;;;;;;11.77;9.02;;;14.30;99.90;;;;;;4824289;29;20461;-62
2022/06/23 04:43:24;;;;;;;14.13;8.98;;;14.40;99.90;;;;;;4824571;29;20042;-63
2022/06/23 04:46:09;;;;;;;10.93;8.63;;;14.50;99.90;;;;;;4795958;29;20065;-62
2022/06/23 04:48:55;;;;;;;11.13;9.02;;;14.70;99.90;;;;;;4792934;29;20517;-63
2022/06/23 04:51:27;;;;;;;9.77;7.97;;;14.90;99.90;;;;;;4824101;29;20392;-61
2022/06/23 04:54:14;;;;;;;10.93;8.00;;;15.30;99.90;;;;;;4824447;29;20284;-63
2022/06/23 04:57:12;;;;;;;10.38;7.70;;;16.00;99.90;;;;;;4823941;29;20194;-62
2022/06/23 04:59:48;;;;;;;8.23;6.78;;;16.90;99.90;;;;;;4795270;29;20431;-63
2022/06/23 05:02:19;;;;;;;9.75;7.63;;;18.00;99.90;;;;;;4823271;29;20521;-63
2022/06/23 05:04:51;;;;;;;8.48;6.20;;;18.80;99.90;;;;;;4824299;29;20054;-62
2022/06/23 05:07:43;;;;;;;8.85;6.82;;;19.40;99.90;;;;;;4823988;29;20062;-62
2022/06/23 05:10:24;;;;;;;9.05;7.20;;;20.00;99.90;;;;;;4813980;29;20054;-62
2022/06/23 05:12:56;;;;;;;7.97;6.40;;;20.60;99.90;;;;;;4824154;29;20053;-63
2022/06/23 05:15:32;;;;;;;7.20;6.35;;;21.20;99.90;;;;;;4823609;29;20054;-67
2022/06/23 05:18:12;;;;;;;9.23;6.80;;;21.90;99.90;;;;;;4807762;29;20046;-63
2022/06/23 05:20:49;;;;;;;7.70;6.00;;;22.10;99.90;;;;;;4823788;29;20121;-62
2022/06/23 05:23:21;;;;;;;8.60;5.93;;;22.60;99.90;;;;;;4807920;29;20065;-62
2022/06/23 05:25:50;;;;;;;6.55;5.47;;;23.00;99.90;;;;;;4807464;29;20493;-64
2022/06/23 05:28:21;;;;;;;8.68;6.15;;;23.70;99.90;;;;;;4807041;29;20058;-64
2022/06/23 05:31:00;;;;;;;9.38;5.63;;;24.40;99.90;;;;;;4823889;29;20093;-62
2022/06/23 05:33:51;;;;;;;9.80;6.18;;;24.90;99.90;;;;;;4806484;29;20191;-61
2022/06/23 05:36:27;;;;;;;6.88;5.47;;;25.50;99.90;;;;;;4823790;29;20050;-62
2022/06/23 05:39:04;;;;;;;8.13;5.88;;;26.00;98.90;;;;;;4823533;29;20125;-64
2022/06/23 05:41:37;;;;;;;6.93;5.68;;;26.40;97.90;;;;;;4807241;29;20062;-62
2022/06/23 05:44:08;;;;;;;6.35;5.55;;;26.60;97.70;;;;;;4806969;29;20409;-62
2022/06/23 05:46:40;;;;;;;6.25;5.50;;;26.80;97.40;;;;;;4823303;29;20050;-63
2022/06/23 05:49:20;;;;;;;8.15;5.55;;;27.10;98.70;;;;;;4823611;29;20053;-62
2022/06/23 05:51:56;;;;;;;8.88;5.90;;;27.20;97.50;;;;;;4791866;29;20050;-62
2022/06/23 05:54:43;;;;;;;7.38;5.20;;;27.30;97.60;;;;;;4823074;29;20573;-64
2022/06/23 05:57:21;;;;;;;7.00;5.35;;;27.40;94.90;;;;;;4823710;29;20046;-63
2022/06/23 06:00:07;;;;;;;7.93;5.70;;;27.50;96.40;;;;;;4822736;29;20556;-62
2022/06/23 06:02:48;;;;;;;7.15;5.35;;;27.40;95.10;;;;;;4822788;29;20058;-62
2022/06/23 06:05:28;;;;;;;10.30;5.47;;;27.60;96.10;;;;;;4823128;29;20422;-61
2022/06/23 06:07:55;;;;;;;6.70;4.78;;;27.70;95.10;;;;;;4806824;29;20413;-62
2022/06/23 06:10:25;;;;;;;6.35;5.65;;;27.70;95.20;;;;;;4806885;29;20054;-63
2022/06/23 06:12:51;;;;;;;7.75;5.35;;;27.80;94.90;;;;;;4822586;29;20043;-62
2022/06/23 06:15:25;;;;;;;8.27;5.78;;;27.70;95.30;;;;;;4823213;29;20050;-63
2022/06/23 06:17:56;;;;;;;9.38;6.00;;;27.60;93.90;;;;;;4822689;29;20072;-63
2022/06/23 06:20:26;;;;;;;6.68;5.75;;;27.40;93.70;;;;;;4823035;29;20121;-63
2022/06/23 06:22:57;;;;;;;10.30;5.32;;;27.40;93.80;;;;;;4823120;29;20062;-62
2022/06/23 06:25:31;;;;;;;8.68;5.72;;;28.10;94.30;;;;;;4823098;29;20539;-61
2022/06/23 06:28:08;;;;;;;8.98;6.07;;;28.20;94.20;;;;;;4822890;29;20149;-62
2022/06/23 06:30:38;;;;;;;8.82;5.60;;;28.50;94.10;;;;;;4822414;29;20097;-61
2022/06/23 06:33:05;;;;;;;7.05;5.63;;;28.30;93.30;;;;;;4822979;29;20057;-62
2022/06/23 06:35:36;;;;;;;6.78;5.75;;;28.50;93.00;;;;;;4822465;29;20082;-68
2022/06/23 06:38:07;;;;;;;8.65;5.18;;;28.40;92.60;;;;;;4822708;29;20155;-62
2022/06/23 06:40:37;;;;;;;7.53;5.05;;;28.60;93.10;;;;;;4822610;29;20058;-63
2022/06/23 06:43:09;;;;;;;8.45;5.40;;;29.00;93.30;;;;;;4822858;29;20061;-65
2022/06/23 06:45:36;;;;;;;8.27;5.38;;;29.20;92.70;;;;;;4806175;29;20471;-63
2022/06/23 06:48:03;;;;;;;9.10;5.38;;;29.20;92.60;;;;;;4822404;29;20054;-62
2022/06/23 06:50:34;;;;;;;7.10;5.05;;;29.30;92.50;;;;;;4806706;29;20059;-62
2022/06/23 06:53:05;;;;;;;7.43;5.07;;;29.70;92.40;;;;;;4822818;29;20064;-62
2022/06/23 06:55:48;;;;;;;5.53;4.88;;;30.00;91.00;;;;;;4822488;29;20054;-62
2022/06/23 06:58:24;;;;;;;7.75;5.53;;;30.30;90.80;;;;;;4822775;29;20054;-64
2022/06/23 07:01:04;;;;;;;6.95;5.20;;;30.30;91.00;;;;;;4822475;29;20053;-63
2022/06/23 07:03:34;;;;;;;7.35;4.82;;;30.40;91.00;;;;;;4806584;29;20497;-61
2022/06/23 07:06:16;;;;;;;7.60;5.20;;;30.70;89.40;;;;;;4806143;29;20091;-62
2022/06/23 07:08:44;;;;;;;7.07;4.93;;;30.90;88.70;;;;;;4822331;29;20046;-63
2022/06/23 07:11:33;;;;;;;7.90;4.85;;;31.20;87.80;;;;;;4822776;29;20401;-62
2022/06/23 07:14:08;;;;;;;7.00;4.50;;;31.10;90.00;;;;;;4822295;29;20054;-63
2022/06/23 07:16:42;;;;;;;7.43;5.18;;;31.10;90.20;;;;;;4821814;29;20046;-68
2022/06/23 07:19:14;;;;;;;6.15;4.60;;;31.40;88.50;;;;;;4822529;29;20051;-62
2022/06/23 07:21:46;;;;;;;7.15;4.85;;;31.40;87.00;;;;;;4821294;29;20497;-63
2022/06/23 07:24:22;;;;;;;5.78;4.65;;;31.70;86.70;;;;;;4806372;29;20058;-61
2022/06/23 07:27:02;;;;;;;7.97;4.88;;;31.60;87.50;;;;;;4821829;29;20073;-62
2022/06/23 07:29:51;;;;;;;6.32;4.40;;;31.60;87.60;;;;;;4822550;29;20062;-63
2022/06/23 07:32:29;;;;;;;8.05;4.35;;;31.60;87.30;;;;;;4799647;29;20119;-63
2022/06/23 07:35:19;;;;;;;7.72;4.50;;;31.80;86.20;;;;;;4822186;29;20054;-64
2022/06/23 07:37:53;;;;;;;7.30;4.50;;;31.90;85.20;;;;;;4821815;29;20058;-61
2022/06/23 07:40:22;;;;;;;6.38;4.30;;;31.50;86.40;;;;;;4822512;29;20050;-63
2022/06/23 07:43:26;;;;;;;6.35;4.53;;;31.60;85.30;;;;;;4805756;29;20142;-61
2022/06/23 07:45:53;;;;;;;;;;;31.90;85.20;;;;;;4794058;29;20055;-63
2022/06/23 07:48:20;;;;;;;7.53;4.57;;;32.10;86.00;;;;;;4822263;29;19925;-62
2022/06/23 07:50:46;;;;;;;6.78;4.70;;;32.40;85.80;;;;;;4821445;29;20393;-61
2022/06/23 07:53:29;;;;;;;7.38;4.38;;;32.60;84.80;;;;;;4822227;29;20055;-62
2022/06/23 07:55:55;;;;;;;;;;;33.00;83.70;;;;;;4791319;29;20520;-64
2022/06/23 07:58:26;;;;;;;7.00;4.28;;;33.10;83.90;;;;;;4825015;29;19983;-64
2022/06/23 08:01:09;;;;;;;5.93;4.20;;;33.00;84.80;;;;;;4824750;29;20058;-62
2022/06/23 08:03:45;;;;;;;6.50;4.88;;;33.30;82.80;;;;;;4808900;29;20067;-61
2022/06/23 08:06:17;;;;;;;5.40;4.20;;;33.70;82.90;;;;;;4825180;29;20082;-65
2022/06/23 08:08:44;;;;;;;7.97;4.40;;;33.60;83.60;;;;;;4824194;29;20141;-68
2022/06/23 08:14:06;;;;;;;6.93;4.18;;;33.70;83.10;;;;;;4824707;29;20086;-61
2022/06/23 08:16:50;;;;;;;5.38;3.95;;;33.90;81.40;;;;;;4824865;29;20055;-63
2022/06/23 08:19:24;;;;;;;6.10;3.70;;;33.60;81.70;;;;;;4824983;29;20042;-61
2022/06/23 08:22:21;;;;;;;5.60;3.50;;;33.70;82.10;;;;;;4808609;29;20061;-62
2022/06/23 08:24:51;;;;;;;8.13;4.40;;;34.40;81.00;;;;;;4808502;29;20080;-62
2022/06/23 08:27:21;;;;;;;6.07;3.97;;;34.60;80.50;;;;;;4824401;29;20489;-64
2022/06/23 08:29:53;;;;;;;7.20;3.92;;;34.70;79.80;;;;;;4824357;29;20058;-63
2022/06/23 08:32:20;;;;;;;7.38;3.63;;;34.60;79.40;;;;;;4824640;29;20042;-66
2022/06/23 08:35:28;;;;;;;6.75;4.00;;;34.90;79.70;;;;;;4808159;29;20056;-69
2022/06/23 08:38:01;;;;;;;6.03;4.00;;;35.00;79.20;;;;;;4783403;29;20058;-63
2022/06/23 08:40:37;;;;;;;6.97;4.40;;;34.70;79.80;;;;;;4808184;29;20421;-63
2022/06/23 08:43:32;;;;;;;7.35;4.25;;;34.70;79.80;;;;;;4823743;29;20093;-66
2022/06/23 08:46:11;;;;;;;6.03;4.50;;;34.80;79.70;;;;;;4792884;29;20054;-65
2022/06/23 08:48:58;;;;;;;6.60;4.38;;;35.00;79.50;;;;;;4824474;29;20054;-64
2022/06/23 08:51:40;;;;;;;5.80;3.63;;;34.90;79.10;;;;;;4824309;29;20069;-62
2022/06/23 08:54:39;;;;;;;6.00;3.85;;;34.50;78.00;;;;;;4808032;29;20102;-63
2022/06/23 08:57:26;;;;;;;6.05;4.10;;;34.20;78.00;;;;;;4821959;29;20155;-63
2022/06/23 09:00:17;;;;;;;5.07;3.80;;;34.00;78.40;;;;;;4823203;29;20064;-66
2022/06/23 09:02:57;;;;;;;5.45;3.75;;;34.10;79.00;;;;;;4822837;29;20124;-64
2022/06/23 09:05:38;;;;;;;6.40;3.70;;;34.60;78.50;;;;;;4822424;29;20405;-64
2022/06/23 09:08:06;;;;;;;5.25;3.70;;;34.30;78.00;;;;;;4819913;29;20145;-65
2022/06/23 09:10:58;;;;;;;6.88;3.60;;;34.20;78.90;;;;;;4823963;29;20058;-65
2022/06/23 09:13:42;;;;;;;6.35;3.15;;;34.00;78.50;;;;;;4807527;29;20054;-64
2022/06/23 09:16:07;;;;;;;6.72;3.38;;;34.20;78.10;;;;;;4807207;29;20109;-63
2022/06/23 09:18:45;;;;;;;6.68;3.40;;;34.60;78.10;;;;;;4823518;29;20440;-63
2022/06/23 09:21:26;;;;;;;6.97;3.80;;;34.30;77.70;;;;;;4807692;29;20045;-68
2022/06/23 09:24:38;;;;;;;6.25;3.60;;;34.30;78.00;;;;;;4807565;29;20047;-71
2022/06/23 09:27:15;;;;;;;5.63;3.00;;;34.30;78.30;;;;;;4823418;29;20058;-63
2022/06/23 09:29:57;;;;;;;5.57;3.45;;;34.20;76.60;;;;;;4823647;29;20063;-65
2022/06/23 09:32:50;;;;;;;6.80;3.45;;;34.10;77.60;;;;;;4823505;29;20069;-65
2022/06/23 09:35:42;;;;;;;;;;;34.10;76.70;;;;;;4807716;29;20074;-64
2022/06/23 09:38:16;;;;;;;4.57;3.03;;;34.20;78.20;;;;;;4785909;29;19924;-63
2022/06/23 09:41:03;;;;;;;5.60;2.90;;;34.10;77.70;;;;;;4823816;29;20050;-65
2022/06/23 09:43:53;;;;;;;5.55;3.30;;;34.40;77.90;;;;;;4807232;29;20061;-63
2022/06/23 09:46:31;;;;;;;5.13;2.50;;;34.50;76.60;;;;;;4807399;29;20058;-61
2022/06/23 09:49:14;;;;;;;4.45;2.35;;;34.50;73.70;;;;;;4823351;29;20133;-62
2022/06/23 09:52:06;;;;;;;4.88;2.50;;;34.50;74.90;;;;;;4823325;29;20139;-62
2022/06/23 09:54:56;;;;;;;4.07;2.40;;;34.20;75.80;;;;;;4823497;29;20058;-62
2022/06/23 09:57:42;;;;;;;6.78;2.60;;;34.10;75.70;;;;;;4806600;29;20138;-60
2022/06/23 10:00:29;;;;;;;8.13;2.63;;;34.00;75.30;;;;;;4823385;29;20062;-61
2022/06/23 10:03:12;;;;;;;3.58;2.10;;;33.80;75.40;;;;;;4823088;29;20061;-69
2022/06/23 10:05:58;;;;;;;6.10;1.90;;;33.50;73.60;;;;;;4823370;29;20054;-61
2022/06/23 10:08:29;;;;;;;6.82;2.30;;;33.00;71.90;;;;;;4823179;29;20062;-62
2022/06/23 10:11:10;;;;;;;6.47;2.40;;;32.60;74.90;;;;;;4823219;29;20082;-61
2022/06/23 10:13:49;;;;;;;4.15;2.25;;;32.30;75.70;;;;;;4822928;29;20050;-60
2022/06/23 10:16:37;;;;;;;4.97;2.20;;;32.30;74.00;;;;;;4822904;29;20220;-61
2022/06/23 10:19:08;;;;;;;4.22;2.30;;;32.30;73.50;;;;;;4822090;29;20057;-62
2022/06/23 10:21:40;;;;;;;4.88;2.42;;;32.00;74.20;;;;;;4822836;29;20405;-61
2022/06/23 10:24:33;;;;;;;4.40;2.10;;;32.10;74.60;;;;;;4822131;29;20137;-61
2022/06/23 10:27:36;;;;;;;3.83;2.50;;;31.80;74.40;;;;;;4822693;29;20070;-70
2022/06/23 10:30:29;;;;;;;4.35;2.40;;;31.60;74.40;;;;;;4822501;29;20054;-63
2022/06/23 10:33:20;;;;;;;4.43;2.10;;;31.40;74.30;;;;;;4806934;29;20054;-65
2022/06/23 10:35:48;;;;;;;5.78;2.88;;;31.40;74.80;;;;;;4806596;29;20081;-63
2022/06/23 10:38:28;;;;;;;4.85;2.17;;;31.30;74.30;;;;;;4822355;29;20585;-62
2022/06/23 10:41:32;;;;;;;7.35;2.15;;;31.20;74.20;;;;;;4806765;29;20058;-62
2022/06/23 10:44:23;;;;;;;4.07;2.10;;;31.00;74.10;;;;;;4808309;29;20050;-63
2022/06/23 10:47:03;;;;;;;5.10;2.10;;;30.90;74.30;;;;;;4822709;29;20051;-62
2022/06/23 10:49:47;;;;;;;3.53;2.33;;;30.90;74.30;;;;;;4806645;29;20523;-62
2022/06/23 10:52:58;;;;;;;5.88;2.22;;;30.90;74.10;;;;;;4806158;29;20066;-61
2022/06/23 10:55:47;;;;;;;4.70;1.90;;;30.80;74.00;;;;;;4787855;29;20065;-61
2022/06/23 10:58:27;;;;;;;4.00;2.28;;;30.80;74.30;;;;;;4806004;29;20061;-63
2022/06/23 11:01:30;;;;;;;3.05;2.00;;;30.80;73.90;;;;;;4822426;29;20054;-61
2022/06/23 11:04:30;;;;;;;4.78;2.28;;;30.60;73.80;;;;;;4806268;29;20054;-64
2022/06/23 11:07:04;;;;;;;4.95;2.20;;;30.50;74.30;;;;;;4806213;29;20082;-63
2022/06/23 11:09:30;;;;;;;3.30;2.10;;;30.60;74.80;;;;;;4822523;29;20050;-62
2022/06/23 11:12:15;;;;;;;4.13;2.13;;;30.80;75.40;;;;;;4822394;29;20070;-62
2022/06/23 11:14:52;;;;;;;3.72;2.00;;;30.80;74.40;;;;;;4806895;29;20112;-63
2022/06/23 11:17:45;;;;;;;9.50;2.65;;;30.60;74.80;;;;;;4822035;29;20073;-65
2022/06/23 11:20:25;;;;;;;4.32;1.98;;;30.60;74.90;;;;;;4821979;29;20507;-61
2022/06/23 11:23:03;;;;;;;3.75;1.90;;;30.60;75.20;;;;;;4822421;29;20126;-61
2022/06/23 11:25:58;;;;;;;6.40;2.42;;;30.70;75.80;;;;;;4822069;29;20054;-61
2022/06/23 11:28:39;;;;;;;6.68;2.30;;;30.90;75.20;;;;;;4821350;29;20058;-61
2022/06/23 11:31:20;;;;;;;5.80;2.20;;;31.10;74.20;;;;;;4822475;29;20058;-69
2022/06/23 11:34:20;;;;;;;6.15;2.63;;;31.20;74.10;;;;;;4825669;29;20091;-62
2022/06/23 11:37:07;;;;;;;5.90;2.22;;;31.00;73.70;;;;;;4824581;29;20050;-62
2022/06/23 11:40:04;;;;;;;5.22;2.13;;;30.60;73.80;;;;;;4809400;29;20058;-62
2022/06/23 11:42:42;;;;;;;6.05;2.40;;;30.60;75.00;;;;;;4825116;29;20119;-62
2022/06/23 11:45:32;;;;;;;3.40;2.00;;;30.60;74.70;;;;;;4825166;29;20390;-69
2022/06/23 11:48:09;;;;;;;5.10;2.35;;;30.60;75.80;;;;;;4825614;29;20078;-62
2022/06/23 11:50:43;;;;;;;4.03;2.40;;;30.80;75.30;;;;;;4825445;29;20055;-62
2022/06/23 11:53:23;;;;;;;4.72;2.60;;;30.80;75.20;;;;;;4809233;29;20050;-70
2022/06/23 11:56:04;;;;;;;5.18;2.58;;;30.90;75.80;;;;;;4825402;29;20142;-61
2022/06/23 11:58:59;;;;;;;5.72;2.35;;;31.00;74.70;;;;;;4824870;29;20633;-62
2022/06/23 12:01:25;;;;;;;4.75;2.35;;;30.90;74.50;;;;;;4824097;29;20054;-61
2022/06/23 12:04:16;;;;;;;4.57;2.40;;;30.80;74.30;;;;;;4825169;29;20050;-62
2022/06/23 12:06:59;;;;;;;5.60;2.33;;;30.70;74.70;;;;;;4825182;29;20058;-61
2022/06/23 12:09:50;;;;;;;4.30;1.97;;;30.60;74.60;;;;;;4824905;29;20101;-63
2022/06/23 12:12:16;;;;;;;5.95;2.53;;;30.50;74.20;;;;;;4796114;29;20058;-62
2022/06/23 12:14:43;;;;;;;5.25;2.40;;;30.60;74.60;;;;;;4825041;29;20054;-63
2022/06/23 12:17:12;;;;;;;5.07;2.40;;;30.60;74.20;;;;;;4824867;29;20046;-61
2022/06/23 12:20:05;;;;;;;3.83;2.10;;;30.60;74.40;;;;;;4824799;29;20057;-64
2022/06/23 12:22:39;;;;;;;5.68;2.25;;;30.50;74.80;;;;;;4808596;29;20050;-62
2022/06/23 12:25:17;;;;;;;3.85;2.17;;;30.50;74.70;;;;;;4824904;29;20062;-62
2022/06/23 12:27:53;;;;;;;4.50;2.20;;;30.50;74.80;;;;;;4824629;29;20272;-62
2022/06/23 12:30:19;;;;;;;4.60;2.20;;;30.60;74.50;;;;;;4808188;29;20118;-63
2022/06/23 12:33:17;;;;;;;4.25;2.08;;;30.60;74.90;;;;;;4824747;29;20429;-62
2022/06/23 12:36:06;;;;;;;3.60;2.05;;;30.60;74.90;;;;;;4824783;29;20050;-62
2022/06/23 12:38:43;;;;;;;6.88;2.55;;;30.80;74.40;;;;;;4824266;29;20054;-63
2022/06/23 12:41:15;;;;;;;4.28;2.03;;;31.00;73.50;;;;;;4824823;29;20050;-62
2022/06/23 12:44:05;;;;;;;4.93;1.90;;;30.90;73.20;;;;;;4824115;29;20054;-62
2022/06/23 12:46:36;;;;;;;5.35;2.08;;;31.00;72.40;;;;;;4807986;29;20133;-62
2022/06/23 12:49:34;;;;;;;6.28;2.42;;;31.00;72.90;;;;;;4824488;29;20051;-62
2022/06/23 12:52:21;;;;;;;4.40;2.10;;;31.00;73.40;;;;;;4768510;29;20094;-63
2022/06/23 12:55:22;;;;;;;3.97;1.80;;;31.00;73.40;;;;;;4808255;29;20081;-61
2022/06/23 12:58:11;;;;;;;3.85;1.73;;;31.10;71.30;;;;;;4824402;29;20477;-61
2022/06/23 13:00:58;;;;;;;4.85;1.80;;;31.20;70.50;;;;;;4824144;29;20046;-62
2022/06/23 13:03:45;;;;;;;4.88;1.80;;;31.30;70.40;;;;;;4824038;29;20058;-64
2022/06/23 13:06:22;;;;;;;5.25;2.00;;;31.20;70.30;;;;;;4824231;29;20058;-61
2022/06/23 13:09:11;;;;;;;5.18;1.92;;;31.20;70.70;;;;;;4824292;29;20398;-62
2022/06/23 13:12:15;;;;;;;4.28;1.90;;;31.20;71.00;;;;;;4795097;29;20057;-61
2022/06/23 13:14:55;;;;;;;4.50;1.70;;;31.30;70.30;;;;;;4823812;29;20133;-62
2022/06/23 13:17:58;;;;;;;4.28;2.05;;;31.40;70.30;;;;;;4807475;29;20401;-62
2022/06/23 13:20:48;;;;;;;3.47;2.13;;;31.40;70.50;;;;;;4749491;30;20071;-63
2022/06/23 13:23:20;;;;;;;4.13;2.10;;;31.40;70.70;;;;;;4822005;29;20065;-63
2022/06/23 13:25:52;;;;;;;2.78;1.88;;;31.50;70.60;;;;;;4823953;29;20127;-62
2022/06/23 13:28:39;;;;;;;3.92;1.92;;;31.40;70.80;;;;;;4807604;29;20062;-62
2022/06/23 13:31:20;;;;;;;4.63;2.05;;;31.30;70.70;;;;;;4824034;29;20375;-62
2022/06/23 13:33:49;;;;;;;4.97;1.75;;;31.30;70.70;;;;;;4823866;29;20133;-63
2022/06/23 13:36:39;;;;;;;3.15;1.83;;;31.30;70.50;;;;;;4823774;29;20433;-65
2022/06/23 13:39:17;;;;;;;4.95;1.95;;;31.10;70.30;;;;;;4824007;29;20054;-62
2022/06/23 13:42:08;;;;;;;5.07;2.05;;;31.20;71.20;;;;;;4823199;29;20677;-61
2022/06/23 13:44:52;;;;;;;4.07;2.00;;;31.30;71.30;;;;;;4823362;29;20058;-63
2022/06/23 13:47:50;;;;;;;3.13;1.95;;;31.40;70.60;;;;;;4823753;29;20089;-62
2022/06/23 13:50:39;;;;;;;6.63;2.05;;;31.30;70.40;;;;;;4798703;29;20097;-63
2022/06/23 13:53:11;;;;;;;4.68;2.20;;;31.30;70.20;;;;;;4823610;29;20053;-62
2022/06/23 13:55:46;;;;;;;5.10;2.13;;;31.30;70.50;;;;;;4822795;29;20122;-62
2022/06/23 13:58:49;;;;;;;4.82;2.05;;;31.20;70.80;;;;;;4823635;29;20050;-62